Ankeny, Iowa
Current Conditions -  °F | °C
As of 7:35 PM on Friday 21 Nov 2014 (Local Time) from KIKV Reporting Station
Overcast Overcast  
Wind Chill: -3°   Ceiling: 1900
Heat Index:   Visibility: 10mi
Dew Point: -4°   Wind: 13mph
Humidity: 65%   Direction: 170°S
Pressure: 30.09"   Gusts: NA
Location:  41.73°N, 93.6°W
Report Text: KIKV 220135Z AUTO 17011KT 10SM OVC019 02/M04 A3009 RMK AO2
Loading
Personal Weather Stations






























Interactive Weather Map New forecast layout! Learn more

10-Day Weather Forecast

Advertisements
Track Severe Weather on mobile